Terminal Aerodrome Forecast
Issued by NWS Amarillo, TX

Home | Current Version | Previous Version | Text Only | Print | Product List | Glossary On
Versions: 1 2 3 4 5 6 7 8 9 10 11 12 13
000
FTUS44 KAMA 032300
TAFDHT
TAF
KDHT 032337Z 0400/0424 17014KT P6SM VCTS SCT050CB BKN120 OVC300
     FM040500 17014KT P6SM SCT100 BKN300
     FM041100 26008KT P6SM SCT100 BKN300
     FM041700 16015G25KT P6SM SCT050 BKN100 BKN300=

USA.gov is the U.S. government's official web portal to all federal, state and local government web resources and services.